Terminal Aerodrome Forecast
Issued by NWS

Home | Current Version | Previous Version | Graphics & Text | Print | Product List | Glossary On
Versions: 1 2 3 4 5 6 7 8 9 10 11 12 13 14 15
000
FTUS43 KGRB 171700
TAFMTW
TAF
KMTW 171736Z 1718/1818 14007KT P6SM SCT050
     FM172300 VRB04KT P6SM SKC
     FM181100 03011G18KT P6SM SKC
     FM181500 05014G22KT P6SM SCT200=

USA.gov is the U.S. government's official web portal to all federal, state and local government web resources and services.